Startpagina
METAR-TAF:

METAR-TAF

Vliegvelden :

Teheran Mehrabad International Airport

Teheran, Iran

breedte: 35-41N, lengte: 051-21E, hoogte: 1204 m

Actueel weer

Dit bericht is 17 minuten geleden gemaakt, om 21:00 UTC
Wind 6 kt uit het noordoosten
Temperatuur 33°C
Vochtigheid 10%
Druk 1007 hPa
Zicht 10 km of meer
Weinig wolken op 10000 ft

METAR: OIII 212100Z 05006KT 9999 FEW100 33/M02 Q1007 A2974

Tijdstip: 01:47 (21:17 UTC)

Verwachting

Dit bericht is 3 uur en het 37 minuten geleden gemaakt, om 17:40 UTC
Verwachting geldig van 21 om 18 UTC tot 22 om 24 UTC
Wind 6 kt uit het oostzuidoosten
Zicht: 7000 m
Weinig wolken op 4000 ft
Tijdelijke
van 22 om 08 UTC tot 22 om 14 UTC
Wind 16 kt uit het zuidoosten

TAF: OIII 211740Z 2118/2224 12003MPS 7000 FEW040 TEMPO 2208/2214 14008MPS

Waarnemingen en weersverwachtingen van meer dan 4000 vliegvelden (METAR en TAF).

De beschikbare stations zijn de gele en rode punten op de kaart.

Ga met uw muis naar het station om de naam te zien.

Klik dan om waarnemingen en weersverwachtingen te zien.

kaart wijzigen: klik op de groene knoppen met een zwart kruis om in te zoomen, op de groene knop met een streepje om uit te zoomen of op de groene pijlen voor aangrenzende kaarten.


METAR-TAF: